Time;durP1;ratioP1;P1;durP2;ratioP2;P2;SDS_P1;SDS_P2;PMS_P1;PMS_P2;Temp;Humidity;BMP_temperature;BMP_pressure;BME280_temperature;BME280_humidity;BME280_pressure;Samples;Min_cycle;Max_cycle;Signal;HPM_P1;HPM_P2
2022/12/01 00:02:03;;;;;;;75.10;36.97;;;;;;;;;;5147813;27;20038;-73
2022/12/01 00:04:29;;;;;;;73.53;37.05;;;;;;;;;;5148451;27;20267;-72
2022/12/01 00:06:54;;;;;;;67.30;35.42;;;;;;;;;;5148656;27;20464;-71
2022/12/01 00:12:03;;;;;;;62.35;32.22;;;;;;;;;;5149197;27;20333;-72
2022/12/01 00:14:28;;;;;;;61.33;31.95;;;;;;;;;;5133364;27;20101;-73
2022/12/01 00:16:54;;;;;;;61.47;31.47;;;;;;;;;;5150289;27;20483;-73
2022/12/01 00:19:19;;;;;;;59.28;29.92;;;;;;;;;;5149740;27;20394;-72
2022/12/01 00:21:44;;;;;;;53.92;29.48;;;;;;;;;;5151023;27;20101;-73
2022/12/01 00:24:10;;;;;;;61.67;30.52;;;;;;;;;;5152335;27;20023;-72
2022/12/01 00:26:36;;;;;;;61.10;29.90;;;;;;;;;;5150587;27;20023;-72
2022/12/01 00:29:01;;;;;;;57.40;30.50;;;;;;;;;;5144350;27;20125;-73
2022/12/01 00:31:27;;;;;;;60.00;30.00;;;;;;;;;;5146235;27;20031;-73
2022/12/01 00:33:52;;;;;;;58.63;29.88;;;;;;;;;;5145772;27;20308;-72
2022/12/01 00:36:17;;;;;;;65.82;33.45;;;;;;;;;;5151702;27;20027;-69
2022/12/01 00:38:43;;;;;;;64.97;34.77;;;;;;;;;;5129488;27;20022;-69
2022/12/01 00:41:08;;;;;;;65.50;33.70;;;;;;;;;;5149834;27;20296;-69
2022/12/01 00:43:33;;;;;;;59.63;32.47;;;;;;;;;;5150991;27;20350;-69
2022/12/01 00:45:59;;;;;;;61.90;32.42;;;;;;;;;;5127043;27;20317;-69
2022/12/01 00:48:24;;;;;;;61.30;32.42;;;;;;;;;;5131873;27;20033;-68
2022/12/01 00:50:53;;;;;;;63.20;32.65;;;;;;;;;;5150982;27;20018;-70
2022/12/01 00:53:19;;;;;;;61.75;32.28;;;;;;;;;;5151883;27;20023;-69
2022/12/01 00:55:44;;;;;;;62.35;31.48;;;;;;;;;;5150315;27;20588;-70
2022/12/01 00:58:09;;;;;;;63.20;32.03;;;;;;;;;;5128725;27;20022;-69
2022/12/01 01:00:37;;;;;;;59.63;31.70;;;;;;;;;;5129097;27;20387;-70
2022/12/01 01:03:03;;;;;;;61.63;30.80;;;;;;;;;;5131675;27;20026;-69
2022/12/01 01:05:28;;;;;;;59.97;31.27;;;;;;;;;;5123645;27;20031;-69
2022/12/01 01:07:53;;;;;;;61.10;31.30;;;;;;;;;;5151268;27;20014;-69
2022/12/01 01:10:19;;;;;;;63.80;31.17;;;;;;;;;;5151328;27;20339;-69
2022/12/01 01:12:44;;;;;;;57.83;30.10;;;;;;;;;;5131678;27;20294;-69
2022/12/01 01:15:09;;;;;;;61.87;31.80;;;;;;;;;;5147408;27;20346;-70
2022/12/01 01:17:34;;;;;;;55.60;29.30;;;;;;;;;;5151095;27;20022;-69
2022/12/01 01:20:00;;;;;;;62.03;31.00;;;;;;;;;;5149776;27;20023;-69
2022/12/01 01:22:25;;;;;;;63.23;31.53;;;;;;;;;;5148881;27;20030;-68
2022/12/01 01:24:50;;;;;;;61.73;32.77;;;;;;;;;;5150707;27;20358;-70
2022/12/01 01:27:16;;;;;;;67.73;34.00;;;;;;;;;;5128811;27;20279;-69
2022/12/01 01:29:41;;;;;;;61.25;32.78;;;;;;;;;;5147576;27;20601;-69
2022/12/01 01:32:07;;;;;;;63.47;32.05;;;;;;;;;;5141340;27;20110;-70
2022/12/01 01:34:32;;;;;;;65.95;33.60;;;;;;;;;;5130608;27;20019;-70
2022/12/01 01:36:57;;;;;;;61.63;31.93;;;;;;;;;;5147758;27;20043;-70
2022/12/01 01:39:22;;;;;;;56.90;30.93;;;;;;;;;;5128479;27;20667;-69
2022/12/01 01:41:48;;;;;;;58.67;30.10;;;;;;;;;;5128687;27;20277;-70
2022/12/01 01:44:31;;;;;;;55.53;29.43;;;;;;;;;;5151123;27;20023;-70
2022/12/01 01:46:57;;;;;;;52.65;24.95;;;;;;;;;;5124803;27;20259;-69
2022/12/01 01:49:22;;;;;;;45.20;24.25;;;;;;;;;;5150606;27;20034;-69
2022/12/01 01:51:52;;;;;;;45.78;22.85;;;;;;;;;;5151030;27;20088;-69
2022/12/01 01:54:31;;;;;;;42.83;21.52;;;;;;;;;;5149496;27;20031;-69
2022/12/01 01:56:56;;;;;;;;;;;;;;;;;;5149030;27;20027;-70
2022/12/01 01:59:25;;;;;;;32.55;17.75;;;;;;;;;;5130406;27;19913;-69
2022/12/01 02:02:01;;;;;;;37.30;17.73;;;;;;;;;;5149007;27;20049;-70
2022/12/01 02:04:27;;;;;;;28.10;15.95;;;;;;;;;;5144728;27;20266;-68
2022/12/01 02:06:53;;;;;;;28.13;14.70;;;;;;;;;;5132434;27;20026;-70
2022/12/01 02:09:18;;;;;;;25.50;13.93;;;;;;;;;;5145740;27;20083;-69
2022/12/01 02:11:49;;;;;;;25.15;13.73;;;;;;;;;;5151139;27;20546;-70
2022/12/01 02:14:15;;;;;;;25.35;13.48;;;;;;;;;;5148963;27;20046;-69
2022/12/01 02:16:48;;;;;;;22.67;12.93;;;;;;;;;;5150864;27;20042;-70
2022/12/01 02:19:13;;;;;;;23.52;13.18;;;;;;;;;;5128003;27;20274;-69
2022/12/01 02:21:51;;;;;;;24.30;13.13;;;;;;;;;;5133932;27;20026;-69
2022/12/01 02:24:25;;;;;;;21.55;12.65;;;;;;;;;;5152702;27;20437;-70
2022/12/01 02:27:09;;;;;;;26.85;13.45;;;;;;;;;;5150671;27;20030;-69
2022/12/01 02:29:34;;;;;;;22.67;12.20;;;;;;;;;;5151830;27;20468;-70
2022/12/01 02:32:18;;;;;;;24.67;12.50;;;;;;;;;;5154113;27;20034;-69
2022/12/01 02:34:53;;;;;;;21.25;12.07;;;;;;;;;;5149028;27;20085;-70
2022/12/01 02:37:37;;;;;;;23.90;12.65;;;;;;;;;;5150293;27;20019;-70
2022/12/01 02:40:09;;;;;;;25.92;12.98;;;;;;;;;;5130551;27;20018;-70
2022/12/01 02:42:52;;;;;;;26.48;13.43;;;;;;;;;;5153271;27;20019;-69
2022/12/01 02:45:26;;;;;;;25.10;13.20;;;;;;;;;;5153860;27;20018;-70
2022/12/01 02:47:52;;;;;;;22.00;12.13;;;;;;;;;;5149733;27;20033;-70
2022/12/01 02:50:19;;;;;;;25.67;12.55;;;;;;;;;;5128633;27;20050;-69
2022/12/01 02:52:44;;;;;;;23.55;12.27;;;;;;;;;;5152877;27;20030;-69
2022/12/01 02:55:11;;;;;;;24.05;12.85;;;;;;;;;;5152264;27;20533;-69
2022/12/01 02:57:36;;;;;;;22.95;12.07;;;;;;;;;;5132926;27;20030;-69
2022/12/01 03:00:03;;;;;;;25.73;13.07;;;;;;;2.39;nan;101104.00;5154151;27;20018;-69
2022/12/01 03:02:47;;;;;;;25.95;12.63;;;;;;;2.43;nan;101107.91;5152438;27;20305;-69
2022/12/01 03:05:27;;;;;;;23.15;12.63;;;;;;;2.38;nan;101112.78;5148935;27;20059;-70
2022/12/01 03:08:00;;;;;;;25.15;12.18;;;;;;;2.37;nan;101116.31;5134903;27;20018;-70
2022/12/01 03:10:47;;;;;;;24.08;11.65;;;;;;;2.34;nan;101112.25;5150231;27;20026;-69
2022/12/01 03:13:30;;;;;;;23.17;12.13;;;;;;;2.36;nan;101110.31;5150670;27;20048;-70
2022/12/01 03:16:14;;;;;;;23.27;11.95;;;;;;;2.38;nan;101112.78;5148936;27;20097;-70
2022/12/01 03:18:47;;;;;;;24.10;12.00;;;;;;;2.36;nan;101115.50;5131617;27;20023;-69
2022/12/01 03:21:34;;;;;;;22.08;11.95;;;;;;;2.39;nan;101111.78;5149220;27;20010;-70
2022/12/01 03:24:05;;;;;;;22.55;11.15;;;;;;;2.41;nan;101105.47;5150480;27;20026;-69
2022/12/01 03:26:34;;;;;;;18.67;10.35;;;;;;;2.42;nan;101108.88;5134182;27;20071;-70
2022/12/01 03:29:07;;;;;;;20.67;11.27;;;;;;;2.42;nan;101101.06;5152486;27;20023;-70
2022/12/01 03:31:39;;;;;;;25.63;11.20;;;;;;;2.38;nan;101097.97;5132609;27;20365;-70
2022/12/01 03:34:16;;;;;;;19.88;10.75;;;;;;;2.38;nan;101100.59;5151184;27;20030;-70
2022/12/01 03:36:46;;;;;;;21.92;11.48;;;;;;;2.34;nan;101094.06;5149585;27;20492;-70
2022/12/01 03:39:15;;;;;;;21.92;10.55;;;;;;;2.35;nan;101090.50;5152800;27;20032;-70
2022/12/01 03:41:47;;;;;;;22.25;11.20;;;;;;;2.39;nan;101098.78;5151160;27;20079;-70
2022/12/01 03:44:29;;;;;;;20.75;10.18;;;;;;;2.35;nan;101090.50;5128254;27;20052;-70
2022/12/01 03:47:04;;;;;;;20.08;10.77;;;;;;;2.38;nan;101097.97;5147482;27;20079;-70
2022/12/01 03:49:30;;;;;;;20.70;10.77;;;;;;;2.36;nan;101084.31;5133433;27;20026;-73
2022/12/01 03:52:24;;;;;;;20.90;11.15;;;;;;;2.46;nan;101099.81;5150224;27;20023;-70
2022/12/01 03:55:07;;;;;;;24.77;10.55;;;;;;;2.44;nan;101099.13;5144163;27;20042;-69
2022/12/01 03:57:45;;;;;;;25.48;11.07;;;;;;;2.38;nan;101082.38;5149297;27;20019;-69
2022/12/01 04:00:12;;;;;;;18.48;10.15;;;;;;;2.14;nan;101041.50;5149057;27;20035;-69
2022/12/01 04:02:39;;;;;;;27.02;11.95;;;;;;;2.43;nan;101087.94;5149020;27;20186;-69
2022/12/01 04:05:08;;;;;;;24.02;12.48;;;;;;;2.34;nan;101083.66;5146707;27;20489;-68
2022/12/01 04:07:34;;;;;;;25.83;12.65;;;;;;;2.40;nan;101090.03;5127887;27;20037;-69
2022/12/01 04:09:59;;;;;;;24.98;13.13;;;;;;;2.41;nan;101086.47;5152824;27;20037;-69
2022/12/01 04:12:31;;;;;;;25.90;13.15;;;;;;;2.13;nan;101034.66;5146285;27;20392;-69
2022/12/01 04:14:59;;;;;;;26.58;13.18;;;;;;;2.38;nan;101069.41;5151513;27;20110;-69
2022/12/01 04:17:25;;;;;;;30.80;14.48;;;;;;;2.45;nan;101082.59;5148228;27;20023;-70
2022/12/01 04:19:51;;;;;;;31.95;15.02;;;;;;;2.39;nan;101078.00;5152569;27;20053;-69
2022/12/01 04:22:17;;;;;;;33.03;16.45;;;;;;;2.42;nan;101083.72;5149159;27;20058;-69
2022/12/01 04:24:43;;;;;;;34.90;15.45;;;;;;;2.42;nan;101083.72;5148232;27;20097;-69
2022/12/01 04:27:08;;;;;;;35.35;15.07;;;;;;;2.38;nan;101087.59;5148570;27;20297;-70
2022/12/01 04:29:34;;;;;;;29.50;14.65;;;;;;;2.36;nan;101075.72;5150695;27;20014;-69
2022/12/01 04:31:59;;;;;;;27.85;13.60;;;;;;;2.45;nan;101093.00;5150728;27;20011;-69
2022/12/01 04:34:24;;;;;;;32.97;13.75;;;;;;;2.41;nan;101084.66;5147194;27;20015;-69
2022/12/01 04:36:50;;;;;;;23.48;12.02;;;;;;;2.37;nan;101085.13;5146131;27;20084;-68
2022/12/01 04:39:15;;;;;;;21.30;11.73;;;;;;;2.45;nan;101098.19;5150548;27;20702;-69
2022/12/01 04:41:41;;;;;;;26.48;12.07;;;;;;;2.43;nan;101090.53;5132686;27;20043;-69
2022/12/01 04:44:08;;;;;;;22.13;11.43;;;;;;;2.16;nan;101049.94;5148290;27;20014;-69
2022/12/01 04:46:33;;;;;;;21.05;11.27;;;;;;;2.44;nan;101097.38;5148532;27;20084;-69
2022/12/01 04:48:58;;;;;;;20.38;10.57;;;;;;;2.36;nan;101075.72;5132174;27;20093;-69
2022/12/01 04:51:24;;;;;;;24.35;10.80;;;;;;;2.47;nan;101097.06;5132147;27;20025;-69
2022/12/01 04:53:50;;;;;;;19.77;10.40;;;;;;;2.47;nan;101096.25;5148109;27;20015;-69
2022/12/01 04:56:15;;;;;;;18.58;10.05;;;;;;;2.46;nan;101099.81;5146786;27;20031;-69
2022/12/01 04:58:40;;;;;;;18.67;10.32;;;;;;;2.45;nan;101093.00;5149201;27;20079;-69
2022/12/01 05:01:09;;;;;;;20.10;11.15;;;;;;;2.41;nan;101091.66;5150380;27;20022;-69
2022/12/01 05:03:52;;;;;;;23.75;11.30;;;;;;;2.37;nan;101093.75;5127802;27;20019;-69
2022/12/01 05:06:21;;;;;;;25.70;11.15;;;;;;;2.47;nan;101106.66;5145977;27;20037;-69
2022/12/01 05:08:47;;;;;;;22.50;11.57;;;;;;;2.44;nan;101097.38;5147511;27;20026;-69
2022/12/01 05:11:14;;;;;;;21.95;10.95;;;;;;;2.51;nan;101113.16;5146724;27;20023;-69
2022/12/01 05:13:41;;;;;;;21.10;10.90;;;;;;;2.38;nan;101103.19;5150953;27;20045;-69
2022/12/01 05:16:08;;;;;;;23.92;11.35;;;;;;;2.46;nan;101115.41;5146396;27;20782;-69
2022/12/01 05:18:33;;;;;;;23.55;10.70;;;;;;;2.42;nan;101106.28;5151362;27;20050;-69
2022/12/01 05:20:59;;;;;;;20.67;11.57;;;;;;;2.38;nan;101097.97;5146084;27;20110;-69
2022/12/01 05:23:29;;;;;;;23.98;10.88;;;;;;;2.33;nan;101097.63;5150136;27;20477;-69
2022/12/01 05:25:55;;;;;;;23.60;11.40;;;;;;;2.39;nan;101111.78;5130471;27;20042;-68
2022/12/01 05:28:22;;;;;;;25.67;11.43;;;;;;;2.38;nan;101105.78;5126389;27;20395;-70
2022/12/01 05:30:49;;;;;;;22.95;11.13;;;;;;;2.36;nan;101099.09;5128998;27;20411;-68
2022/12/01 05:33:14;;;;;;;32.00;13.27;;;;;;;2.25;nan;101093.22;5150822;27;20023;-70
2022/12/01 05:35:40;;;;;;;34.33;12.38;;;;;;;2.26;nan;101088.81;5148147;27;20026;-69
2022/12/01 05:38:06;;;;;;;28.02;12.57;;;;;;;2.29;nan;101104.91;5147119;27;20106;-70
2022/12/01 05:40:31;;;;;;;28.75;12.45;;;;;;;2.26;nan;101104.41;5123409;27;20453;-69
2022/12/01 05:42:57;;;;;;;24.80;11.57;;;;;;;2.10;nan;101092.13;5149333;27;20023;-70
2022/12/01 05:45:23;;;;;;;26.52;11.98;;;;;;;2.12;nan;101111.78;5148211;27;20048;-69
2022/12/01 05:47:48;;;;;;;26.38;11.55;;;;;;;2.01;nan;101091.25;5131097;27;20083;-69
2022/12/01 05:50:14;;;;;;;26.08;12.10;;;;;;;2.03;nan;101093.69;5149294;27;20026;-69
2022/12/01 05:52:39;;;;;;;27.00;12.88;;;;;;;2.02;nan;101095.47;5150329;27;20023;-69
2022/12/01 05:55:05;;;;;;;26.90;11.70;;;;;;;2.04;nan;101108.31;5147053;27;20109;-69
2022/12/01 05:57:32;;;;;;;26.15;11.60;;;;;;;1.97;nan;101095.13;5155243;27;20027;-70
2022/12/01 05:59:58;;;;;;;26.30;13.45;;;;;;;1.95;nan;101102.25;5155133;27;20042;-69
2022/12/01 06:02:25;;;;;;;30.85;13.27;;;;;;;1.98;nan;101101.94;5148614;27;20108;-69
2022/12/01 06:04:51;;;;;;;26.90;12.68;;;;;;;1.98;nan;101101.13;5150808;27;20468;-69
2022/12/01 06:07:16;;;;;;;29.30;12.88;;;;;;;1.92;nan;101103.38;5154402;27;20145;-69
2022/12/01 06:09:44;;;;;;;26.48;13.15;;;;;;;1.85;nan;101091.94;5154842;27;20093;-68
2022/12/01 06:12:09;;;;;;;25.45;11.95;;;;;;;2.01;nan;101121.59;5153756;27;20053;-70
2022/12/01 06:14:34;;;;;;;22.88;11.93;;;;;;;1.98;nan;101106.31;5152593;27;20046;-69
2022/12/01 06:17:00;;;;;;;25.90;11.45;;;;;;;2.02;nan;101110.25;5151367;27;20018;-69
2022/12/01 06:19:25;;;;;;;23.67;11.57;;;;;;;1.92;nan;101098.16;5132107;27;20022;-69
2022/12/01 06:21:50;;;;;;;27.40;12.60;;;;;;;1.96;nan;101105.66;5153098;27;20098;-69
2022/12/01 06:24:16;;;;;;;31.02;12.68;;;;;;;2.02;nan;101107.66;5133604;27;20395;-69
2022/12/01 06:26:41;;;;;;;29.88;13.55;;;;;;;1.91;nan;101096.53;5151144;27;20391;-69
2022/12/01 06:29:09;;;;;;;31.55;12.25;;;;;;;1.86;nan;101096.16;5152309;27;20101;-69
2022/12/01 06:31:35;;;;;;;25.17;12.13;;;;;;;1.94;nan;101108.41;5133845;27;20014;-69
2022/12/01 06:34:00;;;;;;;25.42;11.60;;;;;;;1.90;nan;101099.28;5133204;27;20478;-69
2022/12/01 06:36:25;;;;;;;23.13;10.88;;;;;;;1.94;nan;101113.63;5150617;27;20490;-67
2022/12/01 06:38:51;;;;;;;23.73;11.63;;;;;;;1.66;nan;101074.75;5151619;27;20097;-69
2022/12/01 06:41:16;;;;;;;23.40;12.05;;;;;;;1.86;nan;101116.13;5149911;27;20073;-68
2022/12/01 06:43:41;;;;;;;24.63;11.45;;;;;;;1.90;nan;101120.88;5151568;27;20026;-69
2022/12/01 06:46:07;;;;;;;25.90;12.30;;;;;;;1.78;nan;101116.06;5152272;27;20027;-68
2022/12/01 06:48:33;;;;;;;20.85;10.82;;;;;;;1.85;nan;101138.69;5148667;27;20023;-68
2022/12/01 06:50:59;;;;;;;23.25;12.35;;;;;;;1.79;nan;101120.28;5152713;27;20034;-69
2022/12/01 06:53:28;;;;;;;28.15;12.75;;;;;;;1.88;nan;101138.38;5135947;27;20029;-69
2022/12/01 06:56:03;;;;;;;24.08;12.73;;;;;;;1.86;nan;101140.31;5148009;27;20023;-69
2022/12/01 06:58:28;;;;;;;26.20;13.48;;;;;;;1.87;nan;101141.97;5149622;27;20080;-68
2022/12/01 07:00:54;;;;;;;28.30;14.32;;;;;;;1.85;nan;101133.50;5152867;27;20435;-69
2022/12/01 07:03:19;;;;;;;32.33;14.95;;;;;;;1.85;nan;101127.50;5151054;27;20013;-69
2022/12/01 07:05:55;;;;;;;29.33;14.85;;;;;;;1.98;nan;101142.69;5149699;27;20022;-69
2022/12/01 07:08:20;;;;;;;27.40;15.10;;;;;;;1.88;nan;101114.19;5152436;27;20026;-69
2022/12/01 07:10:55;;;;;;;34.45;17.48;;;;;;;1.78;nan;101096.09;5153287;27;20029;-69
2022/12/01 07:13:20;;;;;;;41.38;18.13;;;;;;;1.98;nan;101119.31;5153448;27;20039;-69
2022/12/01 07:15:46;;;;;;;44.38;17.20;;;;;;;2.00;nan;101117.38;5149672;27;20093;-69
2022/12/01 07:18:11;;;;;;;40.38;16.60;;;;;;;2.10;nan;101133.69;5150471;27;20035;-69
2022/12/01 07:20:36;;;;;;;33.80;14.18;;;;;;;2.03;nan;101119.66;5132529;27;20023;-69
2022/12/01 07:23:02;;;;;;;31.42;14.20;;;;;;;2.15;nan;101141.03;5151565;27;20026;-69
2022/12/01 07:25:27;;;;;;;26.15;13.50;;;;;;;1.90;nan;101107.06;5149945;27;20527;-68
2022/12/01 07:27:52;;;;;;;36.55;12.80;;;;;;;2.16;nan;101148.69;5132859;27;20033;-71
2022/12/01 07:30:18;;;;;;;31.77;13.60;;;;;;;2.12;nan;101150.75;5152895;27;20050;-70
2022/12/01 07:32:43;;;;;;;29.90;15.23;;;;;;;1.99;nan;101131.31;5150286;27;20387;-70
2022/12/01 07:35:09;;;;;;;30.73;15.27;;;;;;;2.00;nan;101135.56;5150791;27;20029;-70
2022/12/01 07:37:34;;;;;;;32.25;15.88;;;;;;;2.07;nan;101136.59;5134317;27;20115;-70
2022/12/01 07:39:59;;;;;;;32.17;16.52;;;;;;;2.22;nan;101145.47;5147967;27;20525;-70
2022/12/01 07:42:25;;;;;;;32.63;15.70;;;;;;;2.25;nan;101141.75;5149912;27;20023;-70
2022/12/01 07:44:50;;;;;;;31.77;15.20;;;;;;;2.28;nan;101134.47;5150394;27;20011;-69
2022/12/01 07:47:15;;;;;;;29.90;16.08;;;;;;;2.28;nan;101112.88;5150225;27;20026;-70
2022/12/01 07:49:41;;;;;;;29.65;15.43;;;;;;;2.45;nan;101125.00;5149619;27;20157;-69
2022/12/01 07:52:06;;;;;;;31.60;15.25;;;;;;;2.42;nan;101106.28;5151659;27;20537;-69
2022/12/01 07:54:31;;;;;;;32.33;15.20;;;;;;;2.62;nan;101135.47;5148349;27;20461;-70
2022/12/01 07:56:57;;;;;;;34.03;16.40;;;;;;;2.62;nan;101125.91;5128203;27;20030;-69
2022/12/01 07:59:22;;;;;;;32.85;17.13;;;;;;;2.70;nan;101128.53;5143968;27;20015;-70
2022/12/01 08:01:47;;;;;;;34.20;17.05;;;;;;;2.82;nan;101125.66;5150996;27;20030;-70
2022/12/01 08:04:13;;;;;;;34.60;16.30;;;;;;;2.88;nan;101125.84;5147835;27;20027;-70
2022/12/01 08:06:38;;;;;;;34.40;16.45;;;;;;;2.96;nan;101130.28;5149231;27;20056;-69
2022/12/01 08:09:03;;;;;;;32.17;16.23;;;;;;;3.06;nan;101132.75;5146887;27;20074;-70
2022/12/01 08:11:29;;;;;;;29.08;14.93;;;;;;;2.96;nan;101104.25;5151200;27;20022;-70
2022/12/01 08:13:55;;;;;;;31.25;15.73;;;;;;;3.17;nan;101135.88;5127016;27;20110;-70
2022/12/01 08:16:22;;;;;;;27.02;14.13;;;;;;;3.25;nan;101139.47;5148187;27;20022;-69
2022/12/01 08:18:48;;;;;;;26.55;13.57;;;;;;;3.36;nan;101142.59;5132836;27;20518;-70
2022/12/01 08:21:16;;;;;;;25.42;12.70;;;;;;;3.41;nan;101137.72;5133254;27;20511;-69
2022/12/01 08:23:42;;;;;;;22.67;11.23;;;;;;;3.47;nan;101133.69;5147666;27;20015;-70
2022/12/01 08:26:11;;;;;;;20.75;11.20;;;;;;;3.48;nan;101131.91;5152726;27;20384;-70
2022/12/01 08:28:37;;;;;;;20.35;10.82;;;;;;;3.48;nan;101126.69;5152096;27;20026;-69
2022/12/01 08:31:07;;;;;;;22.38;10.95;;;;;;;3.52;nan;101126.22;5148850;27;20026;-69
2022/12/01 08:33:32;;;;;;;23.95;11.13;;;;;;;3.59;nan;101128.97;5152223;27;20022;-70
2022/12/01 08:36:01;;;;;;;16.25;9.75;;;;;;;3.76;nan;101145.41;5134025;27;20583;-70
2022/12/01 08:38:26;;;;;;;19.23;10.35;;;;;;;3.75;nan;101136.00;5151911;27;20023;-69
2022/12/01 08:40:55;;;;;;;20.00;10.40;;;;;;;3.86;nan;101143.50;5149113;27;20026;-70
2022/12/01 08:43:20;;;;;;;16.13;9.63;;;;;;;3.97;nan;101134.53;5127319;27;20025;-69
2022/12/01 08:45:46;;;;;;;20.58;10.70;;;;;;;3.87;nan;101106.03;5150429;27;20010;-69
2022/12/01 08:48:11;;;;;;;21.05;10.57;;;;;;;4.09;nan;101133.22;5132021;27;20076;-70
2022/12/01 08:50:36;;;;;;;18.98;10.75;;;;;;;4.16;nan;101130.78;5145203;27;20029;-70
2022/12/01 08:53:02;;;;;;;20.00;9.88;;;;;;;4.23;nan;101142.97;5149791;27;20105;-70
2022/12/01 08:55:27;;;;;;;21.70;10.70;;;;;;;4.19;nan;101127.81;5126036;27;20395;-70
2022/12/01 08:57:52;;;;;;;18.95;10.63;;;;;;;4.25;nan;101141.03;5151764;27;20018;-73
2022/12/01 09:00:18;;;;;;;23.48;11.80;;;;;;;4.26;nan;101134.84;5130149;27;20549;-73
2022/12/01 09:02:43;;;;;;;19.65;11.35;;;;;;;4.27;nan;101135.66;5148070;27;20942;-74
2022/12/01 09:05:09;;;;;;;22.65;11.93;;;;;;;4.31;nan;101123.09;5149027;27;20030;-73
2022/12/01 09:07:34;;;;;;;24.08;10.95;;;;;;;4.39;nan;101144.75;5114205;27;20018;-73
2022/12/01 09:09:59;;;;;;;22.70;11.68;;;;;;;4.33;nan;101128.94;5148229;27;20062;-73
2022/12/01 09:12:28;;;;;;;22.40;11.40;;;;;;;4.40;nan;101125.50;5132780;27;20511;-71
2022/12/01 09:14:53;;;;;;;47.85;17.50;;;;;;;4.35;nan;101104.34;5127122;27;20026;-70
2022/12/01 09:17:19;;;;;;;37.60;13.63;;;;;;;4.65;nan;101125.47;5151717;27;20023;-69
2022/12/01 09:19:44;;;;;;;30.92;13.10;;;;;;;4.74;nan;101134.91;5133044;27;20060;-70
2022/12/01 09:22:10;;;;;;;24.17;12.07;;;;;;;4.98;nan;101135.75;5150756;27;20023;-70
2022/12/01 09:24:35;;;;;;;28.00;13.10;;;;;;;;;;5151392;27;20030;-71
2022/12/01 09:27:02;;;;;;;19.25;11.27;;;;;;;5.15;nan;101126.91;5147713;27;20103;-71
2022/12/01 09:29:27;;;;;;;20.45;11.00;;;;;;;5.22;nan;101120.00;5152114;27;20031;-71
2022/12/01 09:31:57;;;;;;;23.27;10.88;;;;;;;5.17;nan;101106.66;5154968;27;20380;-71
2022/12/01 09:34:22;;;;;;;18.55;10.02;;;;;;;5.23;nan;101128.66;5153546;27;20376;-70
2022/12/01 09:36:48;;;;;;;20.85;10.50;;;;;;;5.13;nan;101102.75;5152916;27;20034;-70
2022/12/01 09:39:17;;;;;;;18.00;9.85;;;;;;;5.30;nan;101127.78;5152914;27;20084;-70
2022/12/01 09:41:48;;;;;;;20.02;10.85;;;;;;;5.36;nan;101125.47;5149093;27;20053;-70
2022/12/01 09:44:35;;;;;;;19.90;9.75;;;;;;;5.45;nan;101124.44;5134180;27;20033;-69
2022/12/01 09:47:09;;;;;;;19.15;9.88;;;;;;;5.52;nan;101130.59;5151778;27;20400;-70
2022/12/01 09:49:56;;;;;;;21.88;10.73;;;;;;;5.51;nan;101108.06;5150953;27;20357;-69
2022/12/01 09:52:25;;;;;;;20.65;9.93;;;;;;;5.61;nan;101115.69;5134528;27;20503;-70
2022/12/01 09:54:53;;;;;;;14.75;8.93;;;;;;;5.70;nan;101105.00;5152235;27;20044;-69
2022/12/01 09:57:36;;;;;;;16.37;9.33;;;;;;;5.84;nan;101119.09;5130371;27;20062;-69
2022/12/01 10:00:13;;;;;;;18.38;9.70;;;;;;;5.86;nan;101114.47;5148572;27;20118;-70
2022/12/01 10:02:41;;;;;;;17.27;9.25;;;;;;;;;;5146680;27;20023;-69
2022/12/01 10:05:10;;;;;;;17.60;8.75;;;;;;;;;;5134351;27;20029;-69
2022/12/01 10:07:38;;;;;;;15.15;8.63;;;;;;;;;;5151836;27;20027;-69
2022/12/01 10:10:10;;;;;;;15.85;9.15;;;;;;;6.46;nan;101164.31;5152630;27;20033;-70
2022/12/01 10:12:36;;;;;;;17.20;9.55;;;;;;;6.17;nan;101111.78;5134589;27;20045;-70
2022/12/01 10:15:39;;;;;;;18.65;9.73;;;;;;;6.30;nan;101124.28;5150029;27;20026;-70
2022/12/01 10:18:23;;;;;;;15.75;9.30;;;;;;;6.38;nan;101124.19;5152645;27;20023;-69
2022/12/01 10:21:16;;;;;;;16.83;9.43;;;;;;;6.47;nan;101122.28;5151129;27;20480;-70
2022/12/01 10:23:51;;;;;;;17.08;9.73;;;;;;;6.54;nan;101115.34;5132921;27;20027;-69
2022/12/01 10:26:25;;;;;;;17.40;10.27;;;;;;;6.56;nan;101104.69;5131316;27;20365;-70
2022/12/01 10:29:11;;;;;;;16.67;10.52;;;;;;;6.65;nan;101106.22;5152753;27;20371;-70
2022/12/01 10:31:45;;;;;;;17.70;9.65;;;;;;;6.72;nan;101114.16;5152021;27;20030;-69
2022/12/01 10:34:15;;;;;;;17.92;10.25;;;;;;;6.75;nan;101105.94;5150711;27;20063;-70
2022/12/01 10:36:41;;;;;;;18.50;8.93;;;;;;;6.69;nan;101090.97;5150478;27;20097;-70
2022/12/01 10:39:16;;;;;;;17.38;9.75;;;;;;;6.66;nan;101083.50;5153687;27;20130;-70
2022/12/01 10:41:41;;;;;;;19.33;10.50;;;;;;;6.69;nan;101083.13;5149822;27;20015;-68
2022/12/01 10:44:08;;;;;;;17.08;10.13;;;;;;;6.78;nan;101098.56;5132898;27;20033;-70
2022/12/01 10:46:46;;;;;;;22.55;11.07;;;;;;;6.79;nan;101094.13;5151613;27;20097;-69
2022/12/01 10:49:14;;;;;;;22.33;11.88;;;;;;;6.78;nan;101090.69;5147931;27;20030;-70
2022/12/01 10:51:48;;;;;;;19.83;11.13;;;;;;;6.88;nan;101100.09;5152856;27;20031;-69
2022/12/01 10:54:13;;;;;;;22.73;11.60;;;;;;;6.85;nan;101082.94;5149505;27;20011;-70
2022/12/01 10:56:41;;;;;;;22.83;12.02;;;;;;;6.92;nan;101093.47;5134484;27;20464;-70
2022/12/01 10:59:29;;;;;;;22.38;12.15;;;;;;;6.91;nan;101087.41;5153771;27;20710;-70
2022/12/01 11:01:56;;;;;;;19.20;11.07;;;;;;;6.82;nan;101070.19;5148663;27;20098;-70
2022/12/01 11:04:44;;;;;;;20.48;12.30;;;;;;;6.94;nan;101087.06;5146303;27;20539;-70
2022/12/01 11:07:32;;;;;;;20.15;10.80;;;;;;;6.96;nan;101089.50;5151962;27;20034;-70
2022/12/01 11:10:12;;;;;;;20.20;11.02;;;;;;;7.01;nan;101093.16;5134503;27;20036;-69
2022/12/01 11:12:38;;;;;;;19.42;10.93;;;;;;;7.02;nan;101086.94;5149142;27;20050;-68
2022/12/01 11:15:05;;;;;;;21.05;11.40;;;;;;;7.06;nan;101081.34;5153083;27;20443;-70
2022/12/01 11:17:35;;;;;;;18.65;10.30;;;;;;;7.05;nan;101077.09;5129822;27;20492;-70
2022/12/01 11:20:25;;;;;;;19.33;11.23;;;;;;;7.19;nan;101097.22;5153476;27;20075;-69
2022/12/01 11:22:51;;;;;;;20.40;11.65;;;;;;;7.19;nan;101081.50;5150539;27;20035;-69
2022/12/01 11:25:20;;;;;;;22.08;12.07;;;;;;;7.21;nan;101093.41;5150431;27;20022;-69
2022/12/01 11:27:53;;;;;;;20.58;11.88;;;;;;;7.26;nan;101092.06;5147713;27;20022;-70
2022/12/01 11:30:25;;;;;;;22.85;12.40;;;;;;;7.26;nan;101085.00;5147243;27;20068;-69
2022/12/01 11:33:03;;;;;;;28.08;14.07;;;;;;;7.25;nan;101096.44;5150243;27;20033;-70
2022/12/01 11:35:37;;;;;;;24.08;12.50;;;;;;;7.27;nan;101085.81;5148253;27;20027;-70
2022/12/01 11:38:05;;;;;;;21.95;12.30;;;;;;;7.29;nan;101086.44;5152333;27;20022;-70
2022/12/01 11:40:36;;;;;;;22.33;13.20;;;;;;;7.26;nan;101081.56;5127476;27;20665;-70
2022/12/01 11:43:04;;;;;;;20.88;11.50;;;;;;;7.26;nan;101092.84;5146154;27;20076;-70
2022/12/01 11:45:38;;;;;;;19.33;11.77;;;;;;;7.10;nan;101083.41;5131788;27;20110;-70
2022/12/01 11:48:14;;;;;;;27.25;13.15;;;;;;;7.16;nan;101100.19;5148603;27;20031;-70
2022/12/01 11:50:41;;;;;;;22.15;12.23;;;;;;;7.10;nan;101095.69;5150769;27;20041;-70
2022/12/01 11:53:28;;;;;;;24.45;13.60;;;;;;;7.11;nan;101107.78;5150854;27;20498;-70
2022/12/01 11:56:23;;;;;;;26.05;13.90;;;;;;;7.07;nan;101096.06;5143812;27;20027;-70
2022/12/01 11:58:55;;;;;;;33.92;15.00;;;;;;;7.06;nan;101094.44;5130604;27;20511;-70
2022/12/01 12:01:33;;;;;;;29.00;13.55;;;;;;;7.05;nan;101098.06;5150636;27;20030;-69
2022/12/01 12:04:13;;;;;;;29.23;14.25;;;;;;;7.01;nan;101098.41;5130463;27;20089;-69
2022/12/01 12:06:48;;;;;;;27.33;13.75;;;;;;;6.98;nan;101101.41;5146928;27;20025;-70
2022/12/01 12:09:29;;;;;;;28.98;14.48;;;;;;;6.96;nan;101100.78;5150050;27;20487;-69
2022/12/01 12:12:07;;;;;;;31.17;14.07;;;;;;;6.96;nan;101108.63;5149907;27;20027;-70
2022/12/01 12:15:09;;;;;;;34.28;15.20;;;;;;;6.89;nan;101096.47;5150621;27;20019;-70
2022/12/01 12:17:46;;;;;;;32.38;14.65;;;;;;;6.87;nan;101096.66;5100053;27;20031;-70
2022/12/01 12:20:11;;;;;;;27.17;14.55;;;;;;;6.91;nan;101116.22;5152147;27;20023;-69
2022/12/01 12:22:43;;;;;;;25.48;13.85;;;;;;;6.87;nan;101114.16;5151848;27;20022;-69